createdAt,value
2023-02-16T00:01:33.107Z,0.44
2023-02-16T00:03:59.969Z,0.49
2023-02-16T00:06:29.237Z,0.54
2023-02-16T00:08:57.124Z,0.53
2023-02-16T00:11:30.767Z,0.50
2023-02-16T00:13:58.989Z,0.60
2023-02-16T00:16:25.822Z,0.65
2023-02-16T00:18:53.004Z,0.65
2023-02-16T00:21:21.136Z,0.66
2023-02-16T00:23:48.705Z,0.63
2023-02-16T00:26:19.205Z,0.55
2023-02-16T00:28:50.152Z,0.50
2023-02-16T00:31:21.450Z,0.50
2023-02-16T00:33:49.970Z,0.33
2023-02-16T00:36:20.158Z,0.40
2023-02-16T00:38:47.006Z,0.47
2023-02-16T00:41:19.343Z,0.52
2023-02-16T00:43:46.246Z,0.54
2023-02-16T00:46:13.155Z,0.53
2023-02-16T00:48:41.262Z,0.52
2023-02-16T00:51:24.877Z,0.46
2023-02-16T00:53:52.077Z,0.12
2023-02-16T00:56:20.996Z,-0.04
2023-02-16T00:58:52.366Z,0.00
2023-02-16T01:01:31.980Z,0.04
2023-02-16T01:04:07.695Z,0.12
2023-02-16T01:06:34.517Z,0.09
2023-02-16T01:09:13.662Z,0.17
2023-02-16T01:11:40.489Z,0.24
2023-02-16T01:14:13.224Z,0.22
2023-02-16T01:16:42.716Z,0.27
2023-02-16T01:19:13.098Z,0.28
2023-02-16T01:21:40.423Z,0.31
2023-02-16T01:24:08.244Z,0.32
2023-02-16T01:26:43.565Z,0.30
2023-02-16T01:29:15.707Z,0.30
2023-02-16T01:31:43.764Z,0.30
2023-02-16T01:34:13.632Z,0.32
2023-02-16T01:36:46.677Z,0.30
2023-02-16T01:39:20.084Z,0.34
2023-02-16T01:42:04.233Z,0.34
2023-02-16T01:44:41.273Z,0.37
2023-02-16T01:47:35.092Z,0.37
2023-02-16T01:50:17.661Z,0.36
2023-02-16T01:52:56.549Z,0.34
2023-02-16T01:55:31.002Z,0.34
2023-02-16T01:58:05.491Z,0.25
2023-02-16T02:01:24.770Z,-0.03
2023-02-16T02:03:55.220Z,-0.29
2023-02-16T02:06:34.122Z,-0.33
2023-02-16T02:09:08.120Z,-0.32
2023-02-16T02:11:45.640Z,-0.25
2023-02-16T02:14:20.621Z,-0.17
2023-02-16T02:16:59.048Z,-0.12
2023-02-16T02:19:28.466Z,-0.21
2023-02-16T02:22:30.451Z,-0.28
2023-02-16T02:25:41.198Z,-0.32
2023-02-16T02:28:19.508Z,-0.28
2023-02-16T02:31:02.514Z,-0.23
2023-02-16T02:33:50.096Z,-0.21
2023-02-16T02:36:34.009Z,-0.22
2023-02-16T02:39:25.790Z,-0.14
2023-02-16T02:42:04.449Z,-0.04
2023-02-16T02:44:47.214Z,0.04
2023-02-16T02:47:14.372Z,0.09
2023-02-16T02:49:50.104Z,0.06
2023-02-16T02:52:18.279Z,0.09
2023-02-16T02:54:47.966Z,0.09
2023-02-16T02:57:23.255Z,0.09
2023-02-16T03:00:01.626Z,0.06
2023-02-16T03:02:35.676Z,0.03
2023-02-16T03:05:09.236Z,0.03
2023-02-16T03:07:39.212Z,0.07
2023-02-16T03:10:07.777Z,0.03
2023-02-16T03:12:36.335Z,-0.02
2023-02-16T03:15:06.300Z,-0.04
2023-02-16T03:17:38.272Z,-0.07
2023-02-16T03:20:12.271Z,-0.07
2023-02-16T03:22:40.670Z,-0.11
2023-02-16T03:25:07.664Z,-0.18
2023-02-16T03:27:40.495Z,-0.18
2023-02-16T03:30:12.644Z,-0.15
2023-02-16T03:32:40.369Z,-0.11
2023-02-16T03:35:08.075Z,-0.25
2023-02-16T03:37:35.578Z,-0.25
2023-02-16T03:40:09.786Z,-0.19
2023-02-16T03:42:37.027Z,-0.19
2023-02-16T03:45:04.532Z,-0.27
2023-02-16T03:47:36.436Z,-0.21
2023-02-16T03:50:10.677Z,-0.19
2023-02-16T03:52:38.628Z,-0.27
2023-02-16T03:55:06.482Z,-0.36
2023-02-16T03:57:33.544Z,-0.39
2023-02-16T04:00:00.748Z,-0.36
2023-02-16T04:02:28.976Z,-0.34
2023-02-16T04:04:57.265Z,-0.29
2023-02-16T04:07:24.373Z,-0.24
2023-02-16T04:09:51.172Z,-0.18
2023-02-16T04:12:17.989Z,-0.20
2023-02-16T04:14:44.826Z,-0.18
2023-02-16T04:17:11.818Z,-0.23
2023-02-16T04:19:38.624Z,-0.24
2023-02-16T04:22:06.826Z,-0.28
2023-02-16T04:24:33.734Z,-0.26
2023-02-16T04:27:00.525Z,-0.25
2023-02-16T04:29:27.619Z,-0.23
2023-02-16T04:31:55.728Z,-0.28
2023-02-16T04:34:23.417Z,-0.33
2023-02-16T04:36:50.620Z,-0.41
2023-02-16T04:39:19.335Z,-0.41
2023-02-16T04:41:46.255Z,-0.44
2023-02-16T04:44:13.429Z,-0.50
2023-02-16T04:46:40.562Z,-0.45
2023-02-16T04:49:07.450Z,-0.45
2023-02-16T04:51:34.308Z,-0.43
2023-02-16T04:54:01.252Z,-0.45
2023-02-16T04:56:29.351Z,-0.56
2023-02-16T04:58:56.284Z,-0.57
2023-02-16T05:01:27.161Z,-0.51
2023-02-16T05:03:54.916Z,-0.75
2023-02-16T05:06:21.923Z,-0.75
2023-02-16T05:08:50.368Z,-0.72
2023-02-16T05:11:17.195Z,-0.80
2023-02-16T05:13:45.356Z,-0.89
2023-02-16T05:16:12.394Z,-0.91
2023-02-16T05:18:39.248Z,-0.87
2023-02-16T05:21:06.410Z,-0.83
2023-02-16T05:23:33.605Z,-0.95
2023-02-16T05:26:07.484Z,-0.90
2023-02-16T05:28:34.384Z,-0.99
2023-02-16T05:31:09.005Z,-0.96
2023-02-16T05:34:16.521Z,-0.87
2023-02-16T05:36:43.478Z,-0.83
2023-02-16T05:39:10.339Z,-0.84
2023-02-16T05:41:38.094Z,-0.82
2023-02-16T05:44:07.681Z,-0.87
2023-02-16T05:46:38.790Z,-0.95
2023-02-16T05:49:07.753Z,-0.94
2023-02-16T05:51:35.586Z,-1.01
2023-02-16T05:54:03.013Z,-1.08
2023-02-16T05:56:30.079Z,-1.07
2023-02-16T05:58:58.889Z,-1.02
2023-02-16T06:01:27.226Z,-0.98
2023-02-16T06:04:00.001Z,-1.04
2023-02-16T06:06:33.014Z,-0.97
2023-02-16T06:12:50.490Z,-1.02
2023-02-16T06:15:19.979Z,-1.12
2023-02-16T06:17:47.076Z,-1.15
2023-02-16T06:20:15.695Z,-1.18
2023-02-16T06:22:42.738Z,-1.24
2023-02-16T06:25:10.611Z,-1.18
2023-02-16T06:27:37.506Z,-1.17
2023-02-16T06:30:07.499Z,-1.18
2023-02-16T06:32:34.444Z,-1.14
2023-02-16T06:35:01.491Z,-1.09
2023-02-16T06:37:30.507Z,-1.26
2023-02-16T06:39:57.320Z,-1.30
2023-02-16T06:42:24.268Z,-1.17
2023-02-16T06:44:51.231Z,-1.05
2023-02-16T06:47:19.264Z,0.41
2023-02-16T06:49:46.194Z,1.12
2023-02-16T06:52:13.208Z,0.82
2023-02-16T06:54:41.533Z,1.04
2023-02-16T06:57:08.685Z,1.30
2023-02-16T06:59:35.514Z,1.41
2023-02-16T07:02:03.913Z,1.50
2023-02-16T07:05:45.533Z,1.75
2023-02-16T07:08:56.171Z,2.19
2023-02-16T07:16:12.511Z,2.73
2023-02-16T07:33:02.159Z,4.39
2023-02-16T07:35:29.275Z,4.62
2023-02-16T07:37:56.724Z,4.65
2023-02-16T07:40:23.660Z,5.17
2023-02-16T07:42:51.104Z,5.72
2023-02-16T07:45:18.077Z,6.15
2023-02-16T07:47:45.206Z,6.59
2023-02-16T07:53:27.437Z,7.50
2023-02-16T07:55:58.737Z,7.75
2023-02-16T07:59:08.334Z,7.48
2023-02-16T08:08:20.832Z,8.76
2023-02-16T08:11:21.599Z,9.62
2023-02-16T08:22:52.433Z,11.25
2023-02-16T08:25:59.168Z,11.85
2023-02-16T08:28:27.953Z,11.75
2023-02-16T08:31:03.266Z,11.48
2023-02-16T08:33:32.379Z,11.43
2023-02-16T08:36:30.880Z,11.71
2023-02-16T08:40:17.141Z,11.36
2023-02-16T08:42:47.681Z,10.92
2023-02-16T08:49:29.331Z,10.37
2023-02-16T08:56:31.571Z,9.96
2023-02-16T09:04:31.279Z,11.12
2023-02-16T09:07:14.745Z,11.00
2023-02-16T09:09:42.912Z,10.78
2023-02-16T09:12:11.565Z,10.36
2023-02-16T09:14:52.159Z,11.04
2023-02-16T09:17:21.631Z,11.77
2023-02-16T09:20:02.753Z,12.27
2023-02-16T09:23:14.104Z,12.85
2023-02-16T09:25:41.705Z,13.52
2023-02-16T09:28:10.565Z,13.63
2023-02-16T09:30:38.913Z,13.65
2023-02-16T09:33:06.397Z,13.51
2023-02-16T09:35:33.466Z,13.10
2023-02-16T09:38:00.326Z,13.60
2023-02-16T09:40:28.803Z,14.22
2023-02-16T09:43:08.645Z,14.17
2023-02-16T09:45:44.911Z,14.08
2023-02-16T09:48:32.820Z,14.69
2023-02-16T09:51:03.428Z,15.18
2023-02-16T09:53:37.213Z,15.75
2023-02-16T09:56:20.173Z,16.21
2023-02-16T09:58:56.092Z,16.58
2023-02-16T10:01:34.986Z,16.58
2023-02-16T10:04:26.953Z,15.39
2023-02-16T10:07:44.162Z,13.47
2023-02-16T10:10:21.437Z,13.08
2023-02-16T10:12:56.417Z,12.91
2023-02-16T10:15:29.014Z,12.90
2023-02-16T10:18:33.930Z,14.48
2023-02-16T10:21:18.380Z,16.56
2023-02-16T10:23:51.073Z,17.58
2023-02-16T10:26:34.815Z,18.28
2023-02-16T10:32:42.133Z,19.89
2023-02-16T10:35:52.575Z,19.47
2023-02-16T10:38:46.912Z,19.18
2023-02-16T10:44:53.960Z,19.21
2023-02-16T10:47:40.273Z,19.14
2023-02-16T11:02:53.927Z,20.83
2023-02-16T11:05:36.085Z,21.18
2023-02-16T11:12:42.406Z,21.62
2023-02-16T11:15:24.926Z,20.85
2023-02-16T11:27:27.645Z,22.63
2023-02-16T11:33:28.187Z,23.01
2023-02-16T11:37:04.574Z,22.72
2023-02-16T11:39:46.682Z,24.00
2023-02-16T11:42:29.272Z,24.29
2023-02-16T11:45:01.463Z,24.07
2023-02-16T11:52:26.158Z,24.30
2023-02-16T11:58:34.252Z,23.65
2023-02-16T12:01:20.888Z,23.74
2023-02-16T12:04:07.264Z,23.72
2023-02-16T12:07:27.189Z,22.13
2023-02-16T12:10:08.922Z,20.19
2023-02-16T12:12:49.437Z,19.11
2023-02-16T12:15:28.355Z,18.55
2023-02-16T12:18:26.753Z,17.40
2023-02-16T12:21:07.698Z,17.40
2023-02-16T12:23:42.289Z,17.15
2023-02-16T12:26:36.529Z,17.09
2023-02-16T12:29:23.317Z,17.12
2023-02-16T12:32:15.137Z,16.98
2023-02-16T12:35:01.310Z,16.59
2023-02-16T12:37:42.932Z,16.13
2023-02-16T12:40:28.537Z,16.28
2023-02-16T12:43:28.075Z,16.25
2023-02-16T12:46:01.286Z,15.90
2023-02-16T12:48:45.665Z,16.05
2023-02-16T12:51:22.034Z,15.89
2023-02-16T12:53:59.916Z,15.45
2023-02-16T12:56:36.447Z,14.77
2023-02-16T12:59:24.986Z,14.99
2023-02-16T13:01:55.825Z,14.65
2023-02-16T13:04:38.637Z,14.79
2023-02-16T13:07:15.315Z,14.38
2023-02-16T13:09:58.592Z,14.71
2023-02-16T13:12:34.634Z,15.00
2023-02-16T13:15:14.126Z,14.90
2023-02-16T13:17:48.830Z,15.18
2023-02-16T13:20:22.310Z,15.04
2023-02-16T13:23:28.812Z,15.18
2023-02-16T13:26:35.763Z,15.24
2023-02-16T13:29:32.208Z,15.39
2023-02-16T13:32:24.079Z,15.26
2023-02-16T13:35:36.739Z,15.37
2023-02-16T13:38:34.347Z,15.36
2023-02-16T13:42:01.745Z,15.43
2023-02-16T13:44:41.370Z,15.61
2023-02-16T13:47:19.544Z,15.82
2023-02-16T13:49:47.738Z,15.77
2023-02-16T13:52:32.954Z,15.69
2023-02-16T13:55:03.293Z,15.66
2023-02-16T13:58:00.978Z,15.50
2023-02-16T14:00:35.002Z,15.50
2023-02-16T14:03:12.411Z,15.45
2023-02-16T14:05:43.515Z,15.56
2023-02-16T14:08:23.683Z,15.63
2023-02-16T14:11:10.557Z,15.58
2023-02-16T14:13:48.598Z,15.46
2023-02-16T14:16:32.816Z,15.40
2023-02-16T14:19:04.801Z,15.35
2023-02-16T14:21:39.124Z,15.26
2023-02-16T14:24:13.372Z,15.31
2023-02-16T14:31:36.268Z,15.31
2023-02-16T14:39:01.969Z,15.15
2023-02-16T14:41:40.702Z,15.21
2023-02-16T14:53:44.977Z,15.12
2023-02-16T14:56:44.565Z,14.98
2023-02-16T15:00:00.279Z,14.96
2023-02-16T15:02:42.130Z,14.90
2023-02-16T15:05:32.788Z,14.91
2023-02-16T15:09:12.345Z,14.82
2023-02-16T15:12:17.086Z,14.83
2023-02-16T15:14:57.194Z,14.83
2023-02-16T15:17:49.937Z,14.79
2023-02-16T15:20:31.880Z,14.60
2023-02-16T15:23:02.211Z,14.68
2023-02-16T15:25:33.990Z,14.65
2023-02-16T15:28:19.021Z,14.60
2023-02-16T15:30:51.171Z,14.57
2023-02-16T15:33:33.044Z,14.57
2023-02-16T15:36:03.975Z,14.56
2023-02-16T15:38:32.855Z,14.48
2023-02-16T15:41:03.262Z,14.42
2023-02-16T15:43:36.023Z,14.33
2023-02-16T15:46:07.687Z,14.32
2023-02-16T15:48:36.776Z,14.32
2023-02-16T15:51:22.192Z,14.25
2023-02-16T15:53:53.848Z,14.19
2023-02-16T15:56:38.656Z,14.15
2023-02-16T15:59:28.881Z,14.14
2023-02-16T16:02:00.799Z,14.08
2023-02-16T16:04:30.058Z,14.03
2023-02-16T16:06:58.208Z,13.96
2023-02-16T16:09:28.175Z,13.93
2023-02-16T16:11:59.125Z,13.87
2023-02-16T16:14:29.370Z,13.84
2023-02-16T16:16:56.961Z,13.84
2023-02-16T16:19:34.364Z,13.77
2023-02-16T16:22:02.711Z,13.74
2023-02-16T16:24:33.951Z,13.67
2023-02-16T16:27:06.592Z,13.60
2023-02-16T16:29:40.577Z,13.56
2023-02-16T16:32:19.380Z,13.50
2023-02-16T16:34:47.420Z,13.48
2023-02-16T16:37:27.037Z,13.46
2023-02-16T16:40:04.392Z,13.39
2023-02-16T16:42:32.321Z,13.35
2023-02-16T16:45:06.990Z,13.32
2023-02-16T16:47:41.477Z,13.25
2023-02-16T16:50:32.863Z,13.16
2023-02-16T16:53:02.626Z,13.05
2023-02-16T16:55:34.467Z,12.82
2023-02-16T16:58:05.705Z,12.65
2023-02-16T17:00:37.369Z,12.55
2023-02-16T17:03:08.810Z,12.48
2023-02-16T17:05:36.623Z,12.42
2023-02-16T17:08:04.999Z,12.40
2023-02-16T17:10:32.144Z,12.41
2023-02-16T17:13:00.491Z,12.41
2023-02-16T17:15:36.225Z,12.40
2023-02-16T17:18:05.719Z,12.35
2023-02-16T17:20:33.041Z,12.28
2023-02-16T17:23:00.406Z,12.21
2023-02-16T17:25:27.136Z,12.18
2023-02-16T17:27:53.903Z,12.17
2023-02-16T17:30:21.008Z,12.16
2023-02-16T17:36:26.591Z,12.13
2023-02-16T17:42:17.934Z,11.84
2023-02-16T17:44:47.312Z,11.78
2023-02-16T17:47:17.100Z,11.73
2023-02-16T17:49:45.319Z,11.61
2023-02-16T17:52:13.357Z,11.45
2023-02-16T17:54:40.506Z,11.28
2023-02-16T17:57:07.630Z,11.21
2023-02-16T17:59:34.526Z,11.17
2023-02-16T18:02:01.390Z,11.16
2023-02-16T18:04:28.241Z,11.20
2023-02-16T18:06:56.523Z,11.04
2023-02-16T18:09:23.405Z,11.15
2023-02-16T18:11:51.030Z,11.19
2023-02-16T18:14:19.825Z,11.14
2023-02-16T18:16:52.391Z,10.97
2023-02-16T18:19:19.540Z,10.89
2023-02-16T18:21:47.287Z,10.75
2023-02-16T18:24:17.561Z,10.70
2023-02-16T18:26:44.580Z,10.66
2023-02-16T18:29:12.491Z,10.71
2023-02-16T18:31:39.790Z,10.77
2023-02-16T18:34:07.113Z,10.80
2023-02-16T18:36:34.954Z,10.86
2023-02-16T18:39:12.602Z,10.87
2023-02-16T18:42:02.176Z,10.73
2023-02-16T18:44:29.690Z,10.63
2023-02-16T18:46:56.469Z,10.54
2023-02-16T18:49:23.289Z,10.59
2023-02-16T18:51:50.342Z,10.60
2023-02-16T18:54:17.625Z,10.62
2023-02-16T18:56:45.036Z,10.68
2023-02-16T18:59:13.948Z,10.69
2023-02-16T19:01:41.288Z,10.70
2023-02-16T19:04:08.375Z,10.71
2023-02-16T19:06:35.273Z,10.68
2023-02-16T19:09:02.171Z,10.48
2023-02-16T19:11:54.316Z,10.38
2023-02-16T19:14:23.625Z,10.43
2023-02-16T19:16:50.513Z,10.31
2023-02-16T19:19:17.725Z,10.28
2023-02-16T19:21:45.071Z,10.25
2023-02-16T19:24:12.530Z,9.89
2023-02-16T19:26:40.060Z,9.64
2023-02-16T19:29:07.294Z,9.65
2023-02-16T19:31:35.990Z,9.39
2023-02-16T19:34:03.063Z,9.41
2023-02-16T19:40:54.410Z,9.08
2023-02-16T19:47:53.106Z,9.19
2023-02-16T19:50:34.690Z,9.24
2023-02-16T19:53:01.804Z,9.28
2023-02-16T19:55:28.674Z,9.14
2023-02-16T19:57:55.562Z,9.10
2023-02-16T20:00:43.623Z,9.27
2023-02-16T20:03:12.075Z,9.43
2023-02-16T20:05:41.332Z,9.39
2023-02-16T20:08:20.623Z,9.43
2023-02-16T20:10:47.471Z,9.43
2023-02-16T20:13:33.493Z,9.25
2023-02-16T20:16:01.524Z,9.24
2023-02-16T20:18:34.058Z,9.32
2023-02-16T20:21:04.685Z,9.38
2023-02-16T20:23:32.043Z,9.28
2023-02-16T20:26:26.545Z,9.27
2023-02-16T20:29:38.382Z,9.35
2023-02-16T20:35:39.379Z,9.11
2023-02-16T20:38:07.676Z,9.09
2023-02-16T20:40:36.540Z,8.96
2023-02-16T20:43:04.390Z,8.85
2023-02-16T20:45:32.007Z,8.82
2023-02-16T20:47:59.094Z,8.88
2023-02-16T20:50:25.932Z,8.97
2023-02-16T20:52:54.152Z,9.02
2023-02-16T20:55:21.411Z,9.04
2023-02-16T20:57:48.511Z,9.03
2023-02-16T21:00:20.660Z,9.03
2023-02-16T21:02:55.115Z,9.07
2023-02-16T21:08:21.012Z,9.12
2023-02-16T21:11:31.824Z,9.12
2023-02-16T21:13:59.201Z,9.11
2023-02-16T21:16:26.335Z,9.01
2023-02-16T21:18:53.334Z,8.96
2023-02-16T21:21:20.785Z,8.90
2023-02-16T21:23:51.848Z,8.89
2023-02-16T21:35:05.430Z,8.86
2023-02-16T21:37:58.819Z,8.85
2023-02-16T21:40:27.610Z,8.92
2023-02-16T21:43:18.058Z,8.93
2023-02-16T21:45:45.713Z,8.94
2023-02-16T21:53:07.037Z,8.90
2023-02-16T21:55:57.817Z,8.80
2023-02-16T21:58:25.632Z,8.68
2023-02-16T22:00:53.690Z,8.65
2023-02-16T22:03:22.216Z,8.69
2023-02-16T22:05:49.067Z,8.74
2023-02-16T22:08:15.941Z,8.74
2023-02-16T22:10:42.785Z,8.70
2023-02-16T22:13:11.353Z,8.73
2023-02-16T22:16:10.856Z,8.71
2023-02-16T22:18:42.038Z,8.79
2023-02-16T22:21:30.473Z,8.82
2023-02-16T22:23:59.932Z,8.83
2023-02-16T22:26:41.400Z,8.89
2023-02-16T22:29:38.021Z,8.97
2023-02-16T22:32:05.228Z,9.00
2023-02-16T22:34:32.363Z,8.98
2023-02-16T22:36:59.240Z,8.87
2023-02-16T22:39:26.066Z,8.83
2023-02-16T22:41:52.927Z,8.88
2023-02-16T22:47:36.388Z,8.80
2023-02-16T22:54:18.819Z,9.03
2023-02-16T22:56:45.687Z,9.16
2023-02-16T22:59:13.036Z,9.11
2023-02-16T23:01:40.055Z,9.12
2023-02-16T23:04:14.037Z,9.16
2023-02-16T23:06:42.828Z,9.18
2023-02-16T23:09:15.812Z,9.19
2023-02-16T23:11:43.153Z,9.26
2023-02-16T23:14:10.290Z,9.23
2023-02-16T23:17:10.418Z,9.15
2023-02-16T23:19:38.610Z,9.15
2023-02-16T23:30:13.933Z,9.00
2023-02-16T23:32:40.690Z,8.95
2023-02-16T23:35:08.943Z,8.94
2023-02-16T23:37:35.945Z,8.98
2023-02-16T23:40:02.761Z,9.02
2023-02-16T23:42:29.694Z,9.05
2023-02-16T23:45:02.357Z,9.10
2023-02-16T23:47:29.816Z,9.17
2023-02-16T23:49:56.645Z,9.15
2023-02-16T23:52:24.813Z,9.16
2023-02-16T23:54:52.097Z,9.22
